Time;durP1;ratioP1;P1;durP2;ratioP2;P2;SDS_P1;SDS_P2;PMS_P1;PMS_P2;Temp;Humidity;BMP_temperature;BMP_pressure;BME280_temperature;BME280_humidity;BME280_pressure;Samples;Min_cycle;Max_cycle;Signal;HPM_P1;HPM_P2
2021/11/18 00:01:21;;;;;;;2.93;2.37;;;8.20;1.00;;;;;;5078274;28;21017;-84
2021/11/18 00:04:10;;;;;;;2.63;2.43;;;8.20;1.00;;;;;;5086818;28;20454;-83
2021/11/18 00:07:00;;;;;;;3.23;2.30;;;8.20;1.00;;;;;;5092214;28;20907;-83
2021/11/18 00:09:49;;;;;;;3.17;2.40;;;8.40;1.00;;;;;;5081921;28;20455;-84
2021/11/18 00:12:38;;;;;;;3.43;2.03;;;8.40;99.90;;;;;;5090083;28;21027;-83
2021/11/18 00:15:28;;;;;;;3.87;2.63;;;8.50;99.90;;;;;;5083669;28;20447;-84
2021/11/18 00:18:18;;;;;;;2.70;1.90;;;8.40;99.90;;;;;;5087858;28;20612;-83
2021/11/18 00:21:10;;;;;;;3.03;1.93;;;8.40;99.90;;;;;;5084289;28;20854;-86
2021/11/18 00:24:01;;;;;;;2.33;2.13;;;8.30;99.90;;;;;;5084242;28;20465;-85
2021/11/18 00:26:54;;;;;;;3.57;1.90;;;8.30;1.00;;;;;;5089619;28;20556;-84
2021/11/18 00:29:43;;;;;;;3.23;2.17;;;8.30;1.00;;;;;;5076865;28;20503;-83
2021/11/18 00:32:32;;;;;;;2.50;2.30;;;8.50;1.00;;;;;;5081600;28;20483;-83
2021/11/18 00:35:23;;;;;;;2.63;2.33;;;8.40;1.00;;;;;;5077267;28;20532;-84
2021/11/18 00:38:12;;;;;;;3.27;2.00;;;8.30;1.00;;;;;;5062425;28;20441;-84
2021/11/18 00:41:02;;;;;;;3.40;2.03;;;8.40;1.00;;;;;;5069893;28;20459;-84
2021/11/18 00:43:52;;;;;;;2.73;2.30;;;8.50;1.00;;;;;;5065924;28;20440;-83
2021/11/18 00:46:43;;;;;;;3.00;1.90;;;8.60;1.00;;;;;;5066092;28;20451;-83
2021/11/18 00:49:31;;;;;;;2.70;2.10;;;8.60;1.00;;;;;;5065787;28;20436;-81
2021/11/18 00:52:21;;;;;;;3.27;2.80;;;8.40;13.80;;;;;;5064507;28;20452;-82
2021/11/18 00:55:11;;;;;;;1.87;1.73;;;8.30;99.90;;;;;;5071586;28;20440;-84
2021/11/18 00:58:01;;;;;;;3.50;2.50;;;8.30;99.90;;;;;;5066035;28;20444;-84
2021/11/18 01:00:51;;;;;;;2.63;2.33;;;8.30;99.90;;;;;;5055972;28;21080;-84
2021/11/18 01:03:40;;;;;;;3.47;1.97;;;8.40;33.80;;;;;;5092075;28;20466;-83
2021/11/18 01:06:28;;;;;;;3.20;2.20;;;8.20;1.00;;;;;;5088672;28;20444;-83
2021/11/18 01:09:17;;;;;;;4.37;2.17;;;8.00;99.90;;;;;;5087066;28;20542;-83
2021/11/18 01:12:08;;;;;;;2.23;1.80;;;8.20;99.90;;;;;;5081189;28;20480;-86
2021/11/18 01:14:58;;;;;;;2.73;2.00;;;8.30;99.90;;;;;;5079985;28;20447;-82
2021/11/18 01:17:47;;;;;;;2.47;1.87;;;8.50;1.00;;;;;;5087891;28;20442;-84
2021/11/18 01:20:37;;;;;;;5.10;2.13;;;8.40;1.00;;;;;;5058617;28;20473;-83
2021/11/18 01:23:28;;;;;;;4.10;2.03;;;8.50;1.00;;;;;;5062285;28;20490;-82
2021/11/18 01:26:19;;;;;;;4.50;2.47;;;8.50;1.00;;;;;;5067630;28;20455;-83
2021/11/18 01:29:08;;;;;;;4.30;2.30;;;8.50;1.00;;;;;;5069905;28;20440;-84
2021/11/18 01:31:59;;;;;;;4.53;2.27;;;8.60;1.00;;;;;;5059075;28;20952;-84
2021/11/18 01:34:47;;;;;;;2.60;2.00;;;8.40;1.00;;;;;;5061905;28;20501;-84
2021/11/18 01:37:36;;;;;;;2.13;1.93;;;8.30;1.00;;;;;;5067667;28;20444;-84
2021/11/18 01:40:28;;;;;;;3.53;2.37;;;8.30;1.00;;;;;;5071050;28;20450;-84
2021/11/18 01:43:20;;;;;;;2.13;1.83;;;8.20;35.90;;;;;;5070540;28;20439;-83
2021/11/18 01:46:12;;;;;;;2.63;1.77;;;8.30;89.80;;;;;;5048912;28;20478;-83
2021/11/18 01:49:05;;;;;;;2.03;1.70;;;8.40;1.00;;;;;;5068887;28;20444;-82
2021/11/18 01:51:57;;;;;;;3.20;2.40;;;8.50;1.00;;;;;;5064918;28;20822;-82
2021/11/18 01:54:46;;;;;;;2.13;1.87;;;8.50;1.00;;;;;;5057089;28;20492;-84
2021/11/18 01:57:36;;;;;;;3.27;2.23;;;8.70;1.00;;;;;;5064132;28;20802;-83
2021/11/18 02:00:28;;;;;;;3.27;1.97;;;8.70;99.90;;;;;;5067922;28;20442;-82
2021/11/18 02:03:17;;;;;;;4.20;2.40;;;8.80;99.90;;;;;;5062155;28;20452;-83
2021/11/18 02:06:14;;;;;;;3.03;2.40;;;8.90;99.90;;;;;;5055087;28;20467;-83
2021/11/18 02:09:04;;;;;;;2.27;1.97;;;8.90;99.90;;;;;;5064299;28;20435;-82
2021/11/18 02:11:55;;;;;;;3.00;2.17;;;9.00;99.90;;;;;;5066734;28;20452;-82
2021/11/18 02:14:44;;;;;;;3.30;1.83;;;9.00;99.90;;;;;;5055492;28;20489;-84
2021/11/18 02:17:33;;;;;;;2.57;2.00;;;8.90;99.90;;;;;;5067074;28;20447;-83
2021/11/18 02:20:27;;;;;;;2.07;1.87;;;8.90;99.90;;;;;;5064618;28;20435;-82
2021/11/18 02:23:18;;;;;;;1.90;1.50;;;8.70;99.90;;;;;;5070521;28;20466;-82
2021/11/18 02:26:07;;;;;;;3.13;1.97;;;8.80;99.90;;;;;;5072208;28;20432;-83
2021/11/18 02:28:58;;;;;;;3.87;2.37;;;8.90;99.90;;;;;;5051607;28;20445;-84
2021/11/18 02:31:51;;;;;;;3.77;2.10;;;8.90;99.90;;;;;;5066396;28;20472;-86
2021/11/18 02:34:44;;;;;;;2.67;2.13;;;8.90;99.90;;;;;;5064627;28;21334;-83
2021/11/18 02:37:34;;;;;;;3.63;1.90;;;8.90;99.90;;;;;;5066049;28;20452;-84
2021/11/18 02:40:24;;;;;;;2.93;1.97;;;8.90;99.90;;;;;;5071927;28;20474;-85
2021/11/18 02:43:15;;;;;;;5.03;2.30;;;8.80;99.90;;;;;;5075389;28;20526;-83
2021/11/18 02:46:04;;;;;;;2.90;1.87;;;8.80;99.90;;;;;;5077959;28;20444;-83
2021/11/18 02:48:53;;;;;;;3.50;2.67;;;8.90;99.90;;;;;;5087833;28;20456;-84
2021/11/18 02:51:42;;;;;;;3.40;2.23;;;9.10;99.90;;;;;;5085799;28;20467;-84
2021/11/18 02:54:31;;;;;;;5.30;2.10;;;9.10;99.90;;;;;;5082970;28;20471;-83
2021/11/18 02:57:20;;;;;;;2.30;2.03;;;9.10;99.90;;;;;;5081109;28;20473;-86
2021/11/18 03:00:13;;;;;;;2.30;2.10;;;9.20;99.90;;;;;;5079337;28;20449;-84
2021/11/18 03:03:01;;;;;;;4.13;2.60;;;9.20;99.90;;;;;;5082769;28;20456;-84
2021/11/18 03:05:50;;;;;;;2.60;1.73;;;9.20;99.90;;;;;;5081018;28;20447;-83
2021/11/18 03:08:39;;;;;;;2.60;2.17;;;9.20;99.90;;;;;;5085455;28;20427;-85
2021/11/18 03:11:30;;;;;;;3.37;2.20;;;9.20;99.90;;;;;;5082099;28;20487;-84
2021/11/18 03:14:18;;;;;;;2.70;2.03;;;9.20;99.90;;;;;;5087698;28;20460;-83
2021/11/18 03:17:07;;;;;;;4.03;2.47;;;9.20;99.90;;;;;;5087391;28;20450;-83
2021/11/18 03:19:55;;;;;;;2.57;2.37;;;9.20;99.90;;;;;;5082435;28;20443;-83
2021/11/18 03:22:45;;;;;;;2.30;2.10;;;9.20;99.90;;;;;;5079827;28;20796;-84
2021/11/18 03:25:36;;;;;;;2.33;1.57;;;9.20;99.90;;;;;;5080814;28;20455;-83
2021/11/18 03:28:29;;;;;;;3.83;1.90;;;9.20;99.90;;;;;;5073151;28;20923;-85
2021/11/18 03:31:19;;;;;;;3.20;1.87;;;9.10;99.90;;;;;;5086304;28;20563;-84
2021/11/18 03:34:09;;;;;;;2.93;1.83;;;8.80;99.90;;;;;;5077666;28;20476;-83
2021/11/18 03:36:59;;;;;;;2.97;2.30;;;8.80;99.90;;;;;;5076522;28;20452;-85
2021/11/18 03:39:47;;;;;;;2.63;1.60;;;9.00;99.90;;;;;;5080917;28;20448;-84
2021/11/18 03:42:36;;;;;;;2.97;2.60;;;9.00;99.90;;;;;;5080026;28;20690;-84
2021/11/18 03:45:28;;;;;;;2.93;1.97;;;9.00;99.90;;;;;;5073090;28;20526;-84
2021/11/18 03:48:19;;;;;;;2.10;1.80;;;9.10;99.90;;;;;;5082619;28;20527;-84
2021/11/18 03:51:10;;;;;;;3.70;1.97;;;9.20;99.90;;;;;;5080858;28;20456;-84
2021/11/18 03:53:59;;;;;;;2.50;2.10;;;9.20;80.40;;;;;;5075839;28;20417;-83
2021/11/18 03:56:47;;;;;;;2.10;1.80;;;9.20;99.90;;;;;;5075649;28;20454;-84
2021/11/18 03:59:39;;;;;;;4.00;1.77;;;9.20;99.90;;;;;;5082745;28;20444;-84
2021/11/18 04:02:29;;;;;;;3.30;1.60;;;9.10;99.90;;;;;;5080124;28;20451;-83
2021/11/18 04:05:18;;;;;;;2.83;1.83;;;9.10;99.90;;;;;;5078055;28;20424;-84
2021/11/18 04:08:07;;;;;;;4.10;2.50;;;9.20;99.90;;;;;;5085987;28;20702;-82
2021/11/18 04:10:55;;;;;;;3.67;3.07;;;9.20;99.90;;;;;;5087920;28;20481;-83
2021/11/18 04:13:44;;;;;;;4.70;2.47;;;9.20;99.90;;;;;;5061514;28;20927;-84
2021/11/18 04:16:32;;;;;;;2.93;2.30;;;9.30;91.00;;;;;;5046303;28;20700;-82
2021/11/18 04:19:24;;;;;;;2.60;1.90;;;9.00;99.90;;;;;;5059657;28;20439;-86
2021/11/18 04:22:13;;;;;;;3.93;1.90;;;8.90;99.90;;;;;;5061640;28;20453;-83
2021/11/18 04:25:03;;;;;;;3.33;2.10;;;8.90;99.90;;;;;;5065337;28;20448;-83
2021/11/18 04:27:52;;;;;;;2.53;2.13;;;9.00;99.90;;;;;;5054119;28;20452;-84
2021/11/18 04:30:46;;;;;;;3.07;2.50;;;9.00;99.90;;;;;;5061123;28;20465;-83
2021/11/18 04:33:37;;;;;;;2.47;1.77;;;9.00;99.90;;;;;;5058009;28;20445;-84
2021/11/18 04:36:29;;;;;;;3.13;2.13;;;8.90;99.90;;;;;;5062357;28;20464;-83
2021/11/18 04:39:18;;;;;;;3.07;2.40;;;9.00;99.90;;;;;;5069916;28;20441;-82
2021/11/18 04:42:08;;;;;;;3.17;2.40;;;9.00;99.90;;;;;;5069527;28;20465;-82
2021/11/18 04:44:56;;;;;;;5.40;2.73;;;9.00;99.90;;;;;;5072909;28;20435;-82
2021/11/18 04:47:45;;;;;;;2.60;2.40;;;9.00;99.90;;;;;;5070568;28;20522;-83
2021/11/18 04:50:34;;;;;;;2.27;2.07;;;8.90;99.90;;;;;;5069587;28;20968;-83
2021/11/18 04:53:27;;;;;;;4.70;2.33;;;8.90;99.90;;;;;;5064420;28;20444;-83
2021/11/18 04:56:16;;;;;;;2.60;2.13;;;9.00;99.90;;;;;;5063300;28;21088;-84
2021/11/18 04:59:06;;;;;;;4.07;2.50;;;9.10;99.90;;;;;;5075166;28;20444;-85
2021/11/18 05:01:55;;;;;;;6.60;4.23;;;9.10;99.90;;;;;;5064825;28;20833;-82
2021/11/18 05:04:44;;;;;;;3.53;2.60;;;9.20;99.90;;;;;;5069604;28;20830;-83
2021/11/18 05:07:33;;;;;;;2.60;1.90;;;9.10;99.90;;;;;;5066911;28;20444;-80
2021/11/18 05:10:24;;;;;;;2.27;2.00;;;9.00;99.90;;;;;;5058189;28;21010;-83
2021/11/18 05:13:13;;;;;;;2.63;2.07;;;9.10;99.90;;;;;;5072545;28;20794;-83
2021/11/18 05:16:05;;;;;;;4.30;3.50;;;9.10;99.90;;;;;;5072282;28;20476;-83
2021/11/18 05:18:54;;;;;;;3.57;2.60;;;9.20;99.90;;;;;;5069849;28;20438;-84
2021/11/18 05:21:43;;;;;;;5.10;2.27;;;9.20;99.90;;;;;;5067868;28;20452;-84
2021/11/18 05:24:32;;;;;;;5.03;2.53;;;9.20;99.90;;;;;;5058828;28;20479;-83
2021/11/18 05:27:24;;;;;;;4.23;2.30;;;9.20;99.90;;;;;;5068899;28;20457;-81
2021/11/18 05:30:14;;;;;;;3.83;2.33;;;9.20;99.90;;;;;;5082645;28;20441;-82
2021/11/18 05:33:06;;;;;;;3.23;2.30;;;9.20;99.90;;;;;;5072741;28;21014;-83
2021/11/18 05:35:54;;;;;;;5.73;2.47;;;9.20;99.90;;;;;;5047935;28;20481;-80
2021/11/18 05:38:43;;;;;;;3.33;2.20;;;9.30;99.90;;;;;;5049779;28;20455;-79
2021/11/18 05:41:32;;;;;;;3.10;2.90;;;9.30;99.90;;;;;;5055151;28;20500;-79
2021/11/18 05:44:22;;;;;;;4.33;3.03;;;9.30;99.90;;;;;;5051579;28;21568;-79
2021/11/18 05:47:11;;;;;;;2.90;2.60;;;9.30;99.90;;;;;;5056926;28;20457;-78
2021/11/18 05:50:00;;;;;;;3.00;2.10;;;9.20;99.90;;;;;;5052318;28;20986;-79
2021/11/18 05:52:49;;;;;;;3.80;2.77;;;9.30;99.90;;;;;;5066033;28;20437;-77
2021/11/18 05:55:37;;;;;;;3.83;2.80;;;9.20;99.90;;;;;;5057296;28;20500;-77
2021/11/18 05:58:27;;;;;;;2.93;2.13;;;9.20;99.90;;;;;;5062458;28;20453;-78
2021/11/18 06:01:24;;;;;;;3.57;2.13;;;9.00;99.90;;;;;;5048765;28;20493;-78
2021/11/18 06:04:13;;;;;;;6.50;2.97;;;9.10;99.90;;;;;;5060489;28;20456;-78
2021/11/18 06:07:01;;;;;;;5.13;2.80;;;9.20;99.90;;;;;;5057069;28;20448;-78
2021/11/18 06:09:50;;;;;;;5.90;3.37;;;9.20;99.90;;;;;;5047117;28;20456;-77
2021/11/18 06:12:39;;;;;;;3.07;2.60;;;9.30;99.90;;;;;;5063175;28;20452;-79
2021/11/18 06:15:28;;;;;;;2.93;2.40;;;9.30;99.90;;;;;;5061063;28;20467;-80
2021/11/18 06:18:17;;;;;;;4.00;2.60;;;9.30;99.90;;;;;;5066387;28;20443;-80
2021/11/18 06:21:06;;;;;;;4.67;2.57;;;9.30;99.90;;;;;;5060883;28;20995;-79
2021/11/18 06:23:55;;;;;;;3.77;2.37;;;9.10;99.90;;;;;;5068095;28;20433;-79
2021/11/18 06:26:49;;;;;;;3.00;2.30;;;9.10;99.90;;;;;;5062373;28;20433;-80
2021/11/18 06:29:37;;;;;;;3.80;2.47;;;9.10;99.90;;;;;;5065179;28;20444;-78
2021/11/18 06:32:26;;;;;;;5.67;3.70;;;9.00;99.90;;;;;;5059923;28;20455;-80
2021/11/18 06:35:17;;;;;;;5.47;2.80;;;9.00;99.90;;;;;;5063721;28;20873;-79
2021/11/18 06:38:06;;;;;;;2.97;2.53;;;8.80;1.00;;;;;;5062812;28;20416;-78
2021/11/18 06:40:54;;;;;;;4.53;2.57;;;8.90;1.00;;;;;;5057763;28;20513;-78
2021/11/18 06:43:44;;;;;;;3.33;2.23;;;8.90;1.00;;;;;;5062338;28;20559;-78
2021/11/18 06:46:33;;;;;;;3.83;3.10;;;9.00;1.00;;;;;;5048567;28;20446;-77
2021/11/18 06:49:22;;;;;;;4.67;2.70;;;9.00;1.00;;;;;;5059712;28;20457;-78
2021/11/18 06:52:12;;;;;;;3.63;2.93;;;9.00;1.00;;;;;;5057776;28;20577;-79
2021/11/18 06:55:01;;;;;;;6.10;4.00;;;8.80;1.00;;;;;;5059307;28;20456;-78
2021/11/18 06:57:50;;;;;;;2.97;2.40;;;8.60;99.90;;;;;;5062253;28;20431;-78
2021/11/18 07:00:39;;;;;;;5.97;3.30;;;8.50;1.00;;;;;;5063229;28;20859;-78
2021/11/18 07:03:28;;;;;;;3.47;3.17;;;8.40;1.00;;;;;;5053132;28;20482;-78
2021/11/18 07:06:19;;;;;;;5.40;4.17;;;8.40;43.90;;;;;;5063773;28;20437;-78
2021/11/18 07:09:11;;;;;;;4.13;3.10;;;8.30;1.00;;;;;;5062937;28;20455;-76
2021/11/18 07:12:00;;;;;;;5.07;3.03;;;8.30;1.00;;;;;;5066190;28;21000;-78
2021/11/18 07:14:50;;;;;;;4.77;3.30;;;8.50;99.90;;;;;;5061750;28;20444;-79
2021/11/18 07:17:39;;;;;;;4.07;3.43;;;8.70;1.00;;;;;;5055307;28;20845;-77
2021/11/18 07:20:28;;;;;;;4.87;3.33;;;8.70;1.00;;;;;;5058180;28;20432;-78
2021/11/18 07:23:22;;;;;;;7.57;3.17;;;8.80;1.00;;;;;;5063883;28;20487;-78
2021/11/18 07:26:13;;;;;;;5.70;4.17;;;8.90;99.90;;;;;;5056425;28;20455;-78
2021/11/18 07:29:02;;;;;;;3.83;2.70;;;9.00;9.00;;;;;;5056866;28;20450;-78
2021/11/18 07:31:51;;;;;;;4.33;3.23;;;9.00;99.90;;;;;;5062333;28;20467;-78
2021/11/18 07:34:41;;;;;;;5.40;3.03;;;8.70;99.90;;;;;;5054316;28;20574;-78
2021/11/18 07:37:30;;;;;;;6.07;3.03;;;8.80;99.90;;;;;;5062093;28;20466;-77
2021/11/18 07:40:21;;;;;;;4.63;3.30;;;8.60;1.00;;;;;;5057641;28;20782;-78
2021/11/18 07:43:13;;;;;;;3.27;2.57;;;8.60;1.00;;;;;;5054793;28;20444;-78
2021/11/18 07:46:04;;;;;;;4.97;2.97;;;8.70;1.00;;;;;;5064471;28;20985;-78
2021/11/18 07:48:52;;;;;;;4.07;3.07;;;8.90;99.90;;;;;;5065846;28;20455;-78
2021/11/18 07:51:42;;;;;;;6.27;3.60;;;8.90;99.90;;;;;;5061408;28;20774;-77
2021/11/18 07:54:31;;;;;;;4.17;3.53;;;9.00;99.90;;;;;;5060406;28;20431;-77
2021/11/18 07:57:19;;;;;;;5.00;3.03;;;9.10;99.90;;;;;;5066909;28;20468;-77
2021/11/18 08:00:13;;;;;;;6.50;4.23;;;9.20;1.00;;;;;;5054134;28;20583;-77
2021/11/18 08:03:06;;;;;;;7.53;3.90;;;9.20;1.00;;;;;;5063821;28;20477;-78
2021/11/18 08:05:55;;;;;;;10.73;4.67;;;9.30;1.00;;;;;;5057872;28;20476;-77
2021/11/18 08:08:47;;;;;;;11.13;5.57;;;9.30;1.00;;;;;;5057596;28;20462;-79
2021/11/18 08:11:38;;;;;;;8.90;5.80;;;9.40;1.00;;;;;;5063070;28;20539;-78
2021/11/18 08:14:27;;;;;;;10.60;5.30;;;9.40;1.00;;;;;;5061807;28;20820;-78
2021/11/18 08:17:18;;;;;;;9.30;5.27;;;9.40;1.00;;;;;;5060330;28;21143;-79
2021/11/18 08:20:08;;;;;;;8.43;5.03;;;9.30;1.00;;;;;;5067502;28;20810;-78
2021/11/18 08:22:57;;;;;;;11.83;5.37;;;9.20;1.00;;;;;;5060902;28;20435;-78
2021/11/18 08:25:46;;;;;;;10.77;5.23;;;9.20;92.30;;;;;;5062641;28;20445;-77
2021/11/18 08:28:34;;;;;;;9.43;5.47;;;9.20;99.90;;;;;;5045438;28;20954;-78
2021/11/18 08:31:24;;;;;;;6.80;3.70;;;9.10;99.90;;;;;;5067130;28;20480;-78
2021/11/18 08:34:14;;;;;;;6.63;4.40;;;9.20;99.90;;;;;;5077245;28;20433;-77
2021/11/18 08:37:03;;;;;;;12.13;5.53;;;9.00;99.90;;;;;;5085178;28;20459;-77
2021/11/18 08:39:52;;;;;;;11.13;4.67;;;8.60;99.90;;;;;;5063008;28;20479;-78
2021/11/18 08:42:40;;;;;;;8.23;5.13;;;8.60;99.90;;;;;;5061592;28;20463;-77
2021/11/18 08:45:29;;;;;;;13.30;7.00;;;8.70;49.00;;;;;;5058980;28;20520;-78
2021/11/18 08:48:18;;;;;;;10.40;5.27;;;8.50;99.90;;;;;;5062453;28;20457;-78
2021/11/18 08:51:22;;;;;;;11.07;6.30;;;8.60;99.90;;;;;;5065002;28;20456;-78
2021/11/18 08:54:16;;;;;;;11.40;6.10;;;8.60;99.90;;;;;;5052289;28;20972;-78
2021/11/18 08:57:05;;;;;;;15.23;6.60;;;8.70;1.00;;;;;;5062979;28;20462;-78
2021/11/18 08:59:54;;;;;;;11.30;6.60;;;8.80;1.00;;;;;;5066071;28;20447;-78
2021/11/18 09:02:42;;;;;;;13.20;6.00;;;8.90;1.00;;;;;;5064522;28;20457;-77
2021/11/18 09:05:32;;;;;;;7.37;5.00;;;8.70;36.20;;;;;;5067464;28;20442;-79
2021/11/18 09:08:23;;;;;;;9.07;5.20;;;8.80;99.90;;;;;;5064554;28;20742;-78
2021/11/18 09:11:14;;;;;;;11.57;4.87;;;9.10;99.90;;;;;;5067434;28;21085;-77
2021/11/18 09:14:03;;;;;;;11.20;5.00;;;9.10;99.90;;;;;;5060785;28;20961;-78
2021/11/18 09:16:52;;;;;;;10.70;4.40;;;9.10;1.00;;;;;;5063627;28;20461;-79
2021/11/18 09:19:43;;;;;;;6.43;3.57;;;9.10;99.90;;;;;;5059942;28;20434;-77
2021/11/18 09:22:32;;;;;;;5.73;4.80;;;9.20;1.00;;;;;;5062020;28;20452;-78
2021/11/18 09:25:22;;;;;;;7.50;3.80;;;9.10;1.00;;;;;;5065452;28;21084;-78
2021/11/18 09:28:14;;;;;;;6.33;4.33;;;9.20;1.00;;;;;;5066277;28;20918;-78
2021/11/18 09:31:05;;;;;;;6.23;3.53;;;9.20;99.90;;;;;;5069421;28;20462;-79
2021/11/18 09:33:54;;;;;;;4.70;3.43;;;9.00;1.00;;;;;;5068203;28;20425;-78
2021/11/18 09:36:43;;;;;;;4.63;3.33;;;9.10;1.00;;;;;;5069381;28;20958;-77
2021/11/18 09:39:32;;;;;;;6.40;3.63;;;9.20;99.90;;;;;;5061999;28;20441;-78
2021/11/18 09:42:25;;;;;;;5.13;3.10;;;9.40;99.90;;;;;;5066198;28;21035;-77
2021/11/18 09:45:20;;;;;;;7.90;2.97;;;9.40;1.00;;;;;;5061820;28;20457;-78
2021/11/18 09:48:30;;;;;;;4.00;3.30;;;9.40;1.00;;;;;;5054293;28;20448;-78
2021/11/18 09:51:39;;;;;;;6.73;2.97;;;9.30;1.00;;;;;;5055767;28;20462;-77
2021/11/18 09:54:44;;;;;;;5.63;3.30;;;9.40;99.90;;;;;;5055523;28;20444;-78
2021/11/18 09:57:48;;;;;;;4.87;3.97;;;9.20;21.10;;;;;;5056573;28;20511;-77
2021/11/18 10:00:47;;;;;;;5.30;3.47;;;9.20;99.90;;;;;;5064942;28;20733;-78
2021/11/18 10:03:39;;;;;;;6.37;3.80;;;9.30;99.90;;;;;;5063719;28;20612;-78
2021/11/18 10:06:31;;;;;;;5.60;3.33;;;9.30;1.00;;;;;;5067165;28;20849;-78
2021/11/18 10:09:27;;;;;;;4.90;3.00;;;9.40;1.00;;;;;;5068739;28;20566;-78
2021/11/18 10:12:27;;;;;;;4.80;3.17;;;9.50;99.90;;;;;;5066845;28;21261;-78
2021/11/18 10:15:21;;;;;;;5.07;3.70;;;9.50;99.90;;;;;;5067334;28;20444;-78
2021/11/18 10:18:17;;;;;;;7.77;3.43;;;9.60;1.00;;;;;;5053911;28;20467;-77
2021/11/18 10:21:12;;;;;;;8.47;3.97;;;9.70;1.00;;;;;;5064908;28;20455;-77
2021/11/18 10:24:09;;;;;;;6.30;3.00;;;9.70;49.70;;;;;;5060250;28;20456;-78
2021/11/18 10:27:09;;;;;;;6.33;3.40;;;9.90;1.00;;;;;;5056507;28;20447;-77
2021/11/18 10:30:12;;;;;;;5.00;3.43;;;10.10;1.00;;;;;;5065162;28;20452;-78
2021/11/18 10:33:06;;;;;;;5.50;3.00;;;10.30;1.00;;;;;;5064093;28;20450;-77
2021/11/18 10:36:08;;;;;;;4.97;2.90;;;10.50;99.90;;;;;;5067057;28;20444;-77
2021/11/18 10:39:03;;;;;;;4.90;3.07;;;10.70;99.90;;;;;;5063152;28;20492;-77
2021/11/18 10:41:56;;;;;;;3.30;2.43;;;10.70;99.90;;;;;;5062523;28;20458;-78
2021/11/18 10:44:49;;;;;;;3.83;2.30;;;10.70;97.60;;;;;;5055488;28;20523;-77
2021/11/18 10:47:44;;;;;;;3.33;1.87;;;10.70;1.00;;;;;;5062332;28;20443;-77
2021/11/18 10:50:39;;;;;;;2.87;2.50;;;10.60;1.00;;;;;;5050248;28;20500;-77
2021/11/18 10:53:29;;;;;;;4.17;2.73;;;10.70;1.00;;;;;;5056805;28;20440;-77
2021/11/18 10:56:21;;;;;;;3.13;2.13;;;10.70;1.00;;;;;;5060902;28;20481;-77
2021/11/18 10:59:15;;;;;;;3.30;2.07;;;10.70;1.00;;;;;;5054709;28;20464;-77
2021/11/18 11:02:17;;;;;;;1.67;1.50;;;10.60;1.00;;;;;;5067610;28;20608;-78
2021/11/18 11:05:33;;;;;;;1.60;1.50;;;10.70;1.00;;;;;;5060790;28;20451;-78
2021/11/18 11:08:28;;;;;;;1.50;1.40;;;10.70;1.00;;;;;;5058892;28;20430;-77
2021/11/18 11:11:52;;;;;;;3.37;2.17;;;10.70;1.00;;;;;;5053382;28;20474;-77
2021/11/18 11:15:06;;;;;;;2.57;1.60;;;10.80;1.00;;;;;;5055662;28;20882;-77
2021/11/18 11:18:10;;;;;;;1.97;1.53;;;10.80;1.00;;;;;;5058983;28;20468;-77
2021/11/18 11:21:28;;;;;;;2.73;1.60;;;10.80;1.00;;;;;;5058414;28;20448;-77
2021/11/18 11:24:46;;;;;;;1.57;1.47;;;10.80;99.90;;;;;;5054376;28;20450;-77
2021/11/18 11:28:05;;;;;;;2.50;1.40;;;10.80;99.90;;;;;;5056940;28;20435;-77
2021/11/18 11:31:07;;;;;;;1.30;1.20;;;10.60;99.90;;;;;;5063309;28;20454;-77
2021/11/18 11:34:05;;;;;;;1.70;1.20;;;10.60;99.90;;;;;;5057037;28;20668;-77
2021/11/18 11:36:58;;;;;;;1.83;1.13;;;10.60;99.90;;;;;;5059010;28;20456;-78
2021/11/18 11:39:53;;;;;;;1.67;1.10;;;10.50;99.90;;;;;;5066659;28;20475;-76
2021/11/18 11:42:59;;;;;;;1.10;0.93;;;10.30;99.90;;;;;;5063782;28;20464;-78
2021/11/18 11:45:53;;;;;;;1.70;1.37;;;10.40;99.90;;;;;;5067237;28;20433;-76
2021/11/18 11:49:02;;;;;;;2.30;1.57;;;10.40;99.90;;;;;;5063553;28;20442;-78
2021/11/18 11:52:30;;;;;;;1.67;1.40;;;10.50;99.90;;;;;;5066895;28;20465;-77
2021/11/18 11:55:46;;;;;;;1.70;1.37;;;10.50;99.90;;;;;;5057886;28;20431;-77
2021/11/18 11:58:39;;;;;;;2.63;1.60;;;10.60;99.90;;;;;;5059614;28;20475;-78
2021/11/18 12:01:35;;;;;;;2.60;1.70;;;10.60;99.90;;;;;;5062900;28;20456;-77
2021/11/18 12:04:28;;;;;;;2.73;2.20;;;10.60;99.90;;;;;;5064065;28;21010;-78
2021/11/18 12:07:24;;;;;;;2.03;1.83;;;10.60;99.90;;;;;;5063106;28;20484;-80
2021/11/18 12:10:26;;;;;;;2.47;1.50;;;10.60;99.90;;;;;;5062950;28;20434;-78
2021/11/18 12:13:25;;;;;;;2.53;1.83;;;10.70;99.90;;;;;;5065295;28;20458;-78
2021/11/18 12:16:20;;;;;;;1.90;1.60;;;10.80;99.90;;;;;;5062157;28;20435;-78
2021/11/18 12:19:37;;;;;;;1.40;1.30;;;10.70;99.90;;;;;;5059781;28;20467;-78
2021/11/18 12:22:53;;;;;;;2.07;1.77;;;10.70;99.90;;;;;;5065562;28;20460;-79
2021/11/18 12:26:02;;;;;;;1.60;1.43;;;10.70;99.90;;;;;;5062361;28;20445;-80
2021/11/18 12:29:04;;;;;;;3.47;1.70;;;10.70;99.90;;;;;;5065711;28;20435;-77
2021/11/18 12:32:05;;;;;;;2.33;2.00;;;10.80;99.90;;;;;;5055691;28;20456;-78
2021/11/18 12:35:01;;;;;;;1.47;1.30;;;10.60;99.90;;;;;;5058939;28;20533;-79
2021/11/18 12:38:03;;;;;;;1.67;1.40;;;10.50;99.90;;;;;;5052178;28;20498;-78
2021/11/18 12:41:33;;;;;;;1.40;1.30;;;10.60;99.90;;;;;;5065579;28;20473;-78
2021/11/18 12:44:41;;;;;;;1.50;1.40;;;10.70;99.90;;;;;;5064432;28;20441;-78
2021/11/18 12:48:08;;;;;;;1.13;1.00;;;10.80;99.90;;;;;;5060983;28;20445;-78
2021/11/18 12:51:23;;;;;;;1.17;1.07;;;10.80;99.90;;;;;;5056522;28;20463;-78
2021/11/18 12:54:30;;;;;;;1.30;1.20;;;10.80;99.90;;;;;;5055560;28;20439;-78
2021/11/18 12:57:32;;;;;;;1.87;1.20;;;10.80;99.90;;;;;;5068879;28;20442;-79
2021/11/18 13:00:41;;;;;;;3.67;1.57;;;10.60;99.90;;;;;;5065992;28;20474;-77
2021/11/18 13:03:59;;;;;;;4.53;2.80;;;10.60;99.90;;;;;;5058728;28;20441;-74
2021/11/18 13:06:53;;;;;;;1.87;1.50;;;10.60;99.90;;;;;;5061080;28;20446;-79
2021/11/18 13:10:24;;;;;;;2.40;1.30;;;10.60;99.90;;;;;;5061227;28;20445;-79
2021/11/18 13:13:32;;;;;;;2.07;1.73;;;10.60;99.90;;;;;;5057639;28;20940;-78
2021/11/18 13:16:34;;;;;;;1.33;1.23;;;10.60;99.90;;;;;;5059222;28;20439;-77
2021/11/18 13:20:00;;;;;;;1.77;1.60;;;10.30;99.90;;;;;;5060235;28;20480;-79
2021/11/18 13:22:52;;;;;;;2.53;1.50;;;10.30;1.00;;;;;;5057352;28;20429;-78
2021/11/18 13:25:47;;;;;;;2.60;1.83;;;10.40;1.00;;;;;;5064107;28;20456;-78
2021/11/18 13:28:53;;;;;;;3.03;2.00;;;10.20;1.00;;;;;;5068663;28;20438;-79
2021/11/18 13:31:46;;;;;;;2.20;1.77;;;10.00;1.00;;;;;;5064012;28;20502;-79
2021/11/18 13:34:38;;;;;;;2.67;1.80;;;9.90;1.00;;;;;;5056465;28;20570;-78
2021/11/18 13:37:29;;;;;;;4.10;1.40;;;10.10;1.00;;;;;;5055996;28;20435;-78
2021/11/18 13:40:22;;;;;;;1.50;1.30;;;10.30;1.00;;;;;;5055937;28;20465;-78
2021/11/18 13:43:16;;;;;;;1.23;1.10;;;10.50;99.90;;;;;;5060943;28;20431;-79
2021/11/18 13:46:09;;;;;;;1.50;1.40;;;10.50;99.90;;;;;;5063082;28;20438;-78
2021/11/18 13:49:01;;;;;;;2.50;1.50;;;10.60;99.90;;;;;;5062364;28;20430;-79
2021/11/18 13:51:53;;;;;;;3.27;1.23;;;10.70;99.90;;;;;;5057631;28;20469;-79
2021/11/18 13:54:51;;;;;;;2.63;1.33;;;10.80;99.90;;;;;;5063459;28;20439;-79
2021/11/18 13:57:42;;;;;;;1.20;1.10;;;10.70;99.90;;;;;;5063774;28;20438;-78
2021/11/18 14:00:33;;;;;;;1.73;1.40;;;10.70;99.90;;;;;;5059147;28;20454;-79
2021/11/18 14:03:25;;;;;;;3.97;1.20;;;10.80;99.90;;;;;;5061110;28;20544;-78
2021/11/18 14:06:20;;;;;;;1.47;1.10;;;10.60;99.90;;;;;;5053347;28;20438;-78
2021/11/18 14:09:15;;;;;;;1.83;1.17;;;10.60;99.90;;;;;;5064860;28;20542;-79
2021/11/18 14:12:07;;;;;;;1.17;1.00;;;10.70;99.90;;;;;;5061488;28;20857;-79
2021/11/18 14:15:13;;;;;;;0.80;0.80;;;10.50;99.90;;;;;;5059145;28;20442;-79
2021/11/18 14:18:13;;;;;;;1.10;1.00;;;10.70;99.90;;;;;;5060494;28;20457;-79
2021/11/18 14:21:21;;;;;;;1.60;1.00;;;10.80;99.90;;;;;;5058284;28;20474;-80
2021/11/18 14:24:13;;;;;;;0.97;0.80;;;10.70;99.90;;;;;;5067961;28;20457;-80
2021/11/18 14:27:05;;;;;;;3.10;1.50;;;10.70;99.90;;;;;;5066182;28;20456;-80
2021/11/18 14:29:56;;;;;;;3.33;1.70;;;10.70;99.90;;;;;;5067274;28;20458;-79
2021/11/18 14:32:58;;;;;;;3.93;2.20;;;10.80;99.90;;;;;;5058119;28;20434;-79
2021/11/18 14:35:54;;;;;;;4.33;1.97;;;10.90;99.90;;;;;;5068131;28;20431;-80
2021/11/18 14:38:46;;;;;;;4.53;3.20;;;11.00;99.90;;;;;;5069587;28;20425;-79
2021/11/18 14:41:38;;;;;;;4.03;2.60;;;11.10;99.90;;;;;;5057060;28;20828;-79
2021/11/18 14:44:37;;;;;;;3.30;2.30;;;11.10;99.90;;;;;;5057714;28;20473;-80
2021/11/18 14:47:29;;;;;;;3.60;2.03;;;11.10;99.90;;;;;;5060798;28;20446;-79
2021/11/18 14:50:32;;;;;;;2.63;2.10;;;11.10;1.00;;;;;;5065082;28;20428;-78
2021/11/18 14:53:26;;;;;;;3.77;2.47;;;11.00;1.00;;;;;;5058476;28;21503;-79
2021/11/18 14:56:32;;;;;;;3.07;2.30;;;11.10;1.00;;;;;;5067415;28;20418;-79
2021/11/18 14:59:23;;;;;;;4.20;2.33;;;11.10;1.00;;;;;;5054599;28;20497;-79
2021/11/18 15:02:11;;;;;;;3.33;2.47;;;11.10;1.00;;;;;;5058114;28;20474;-79
2021/11/18 15:05:00;;;;;;;3.80;2.63;;;11.10;1.00;;;;;;5060852;28;20450;-79
2021/11/18 15:07:55;;;;;;;3.10;2.80;;;11.10;1.00;;;;;;5060221;28;20949;-79
2021/11/18 15:10:45;;;;;;;5.13;2.63;;;11.10;1.00;;;;;;5065016;28;20455;-78
2021/11/18 15:13:35;;;;;;;2.90;2.60;;;11.10;1.00;;;;;;5064438;28;20445;-79
2021/11/18 15:16:25;;;;;;;2.87;2.30;;;11.10;1.00;;;;;;5065739;28;20434;-78